Time;durP1;ratioP1;P1;durP2;ratioP2;P2;SDS_P1;SDS_P2;PMS_P1;PMS_P2;Temp;Humidity;BMP_temperature;BMP_pressure;BME280_temperature;BME280_humidity;BME280_pressure;Samples;Min_cycle;Max_cycle;Signal;HPM_P1;HPM_P2
2021/10/05 00:01:49;;;;;;;3.55;1.60;;;;;;;14.68;56.38;99639.72;6096864;23;20109;-79
2021/10/05 00:04:16;;;;;;;2.10;1.55;;;;;;;14.67;56.43;99639.84;6096205;23;20034;-80
2021/10/05 00:06:51;;;;;;;1.98;1.85;;;;;;;14.61;57.42;99638.50;6096070;23;20109;-79
2021/10/05 00:09:18;;;;;;;2.22;1.70;;;;;;;14.63;56.64;99630.44;6097343;23;20041;-79
2021/10/05 00:11:49;;;;;;;1.90;1.58;;;;;;;14.57;57.30;99629.94;6096791;23;20026;-79
2021/10/05 00:14:16;;;;;;;2.67;1.83;;;;;;;14.57;56.78;99622.00;6096133;23;20046;-79
2021/10/05 00:16:42;;;;;;;2.50;1.70;;;;;;;14.56;56.80;99622.09;6095954;23;20022;-79
2021/10/05 00:19:09;;;;;;;2.70;1.70;;;;;;;14.54;56.98;99624.03;6096443;23;20354;-79
2021/10/05 00:21:39;;;;;;;2.45;1.67;;;;;;;14.52;57.65;99631.25;6096188;23;20023;-79
2021/10/05 00:24:06;;;;;;;1.55;1.45;;;;;;;14.52;56.82;99620.66;6095786;23;20036;-79
2021/10/05 00:26:42;;;;;;;2.97;1.55;;;;;;;14.48;57.86;99622.69;6096221;23;20036;-79
2021/10/05 00:29:08;;;;;;;3.67;1.67;;;;;;;14.52;56.96;99607.41;6096045;23;20025;-79
2021/10/05 00:31:35;;;;;;;2.78;1.90;;;;;;;14.51;57.00;99614.53;6095989;23;20102;-79
2021/10/05 00:34:02;;;;;;;3.15;1.70;;;;;;;14.51;57.31;99611.88;6095990;23;20030;-79
2021/10/05 00:36:29;;;;;;;1.90;1.67;;;;;;;14.52;57.32;99610.06;6096098;23;20032;-80
2021/10/05 00:39:06;;;;;;;2.03;1.58;;;;;;;14.49;58.15;99607.63;6095596;23;20072;-80
2021/10/05 00:41:34;;;;;;;2.38;1.73;;;;;;;14.53;57.37;99611.75;6096786;23;20454;-79
2021/10/05 00:44:01;;;;;;;3.13;1.70;;;;;;;14.53;57.15;99607.28;6096178;23;20045;-80
2021/10/05 00:46:35;;;;;;;1.90;1.65;;;;;;;14.50;57.90;99599.56;6095825;23;20015;-80
2021/10/05 00:49:03;;;;;;;1.88;1.42;;;;;;;14.52;57.08;99600.31;6096095;23;20094;-80
2021/10/05 00:51:30;;;;;;;2.95;1.63;;;;;;;14.52;57.18;99607.41;6096427;23;20032;-79
2021/10/05 00:53:57;;;;;;;1.60;1.50;;;;;;;14.51;57.21;99605.72;6095996;23;20045;-79
2021/10/05 00:56:31;;;;;;;1.73;1.52;;;;;;;14.46;58.08;99593.69;6095955;23;20031;-79
2021/10/05 00:58:58;;;;;;;4.07;1.80;;;;;;;14.50;57.27;99593.47;6097808;23;20101;-79
2021/10/05 01:01:25;;;;;;;1.95;1.58;;;;;;;14.49;57.39;99591.75;6096348;23;20097;-78
2021/10/05 01:03:53;;;;;;;1.77;1.50;;;;;;;14.49;57.38;99589.94;6098001;23;20346;-79
2021/10/05 01:06:20;;;;;;;1.50;1.40;;;;;;;14.48;57.37;99590.06;6096308;23;20029;-79
2021/10/05 01:08:47;;;;;;;1.80;1.50;;;;;;;14.48;57.37;99582.97;6096174;23;20025;-80
2021/10/05 01:11:14;;;;;;;1.80;1.70;;;;;;;14.47;57.33;99589.25;6096155;23;20030;-80
2021/10/05 01:13:41;;;;;;;3.95;1.60;;;;;;;14.46;57.46;99576.94;6095411;23;20443;-79
2021/10/05 01:16:07;;;;;;;2.00;1.70;;;;;;;14.44;57.46;99574.41;6096516;23;20110;-79
2021/10/05 01:18:34;;;;;;;2.70;1.73;;;;;;;14.44;57.41;99566.44;6096218;23;20050;-79
2021/10/05 01:21:06;;;;;;;1.67;1.48;;;;;;;14.43;58.16;99563.94;6096111;23;20391;-82
2021/10/05 01:23:39;;;;;;;3.33;1.42;;;;;;;14.42;58.10;99551.66;6096289;23;20365;-82
2021/10/05 01:26:05;;;;;;;;;;;;;;;14.43;57.34;99556.00;6096610;23;20398;-82
2021/10/05 01:28:32;;;;;;;3.10;1.65;;;;;;;14.46;57.02;99548.66;6095918;23;19952;-80
2021/10/05 01:31:01;;;;;;;3.05;2.00;;;;;;;14.42;57.54;99546.34;6095945;23;20066;-80
2021/10/05 01:33:29;;;;;;;1.65;1.42;;;;;;;14.39;57.37;99539.50;6097594;23;20105;-80
2021/10/05 01:35:56;;;;;;;1.92;1.50;;;;;;;14.37;57.44;99537.91;6097473;23;20018;-79
2021/10/05 01:38:30;;;;;;;3.95;1.88;;;;;;;14.30;58.07;99525.16;6098099;23;20493;-80
2021/10/05 01:40:57;;;;;;;1.90;1.75;;;;;;;14.30;57.47;99519.03;6097547;23;20027;-79
2021/10/05 01:43:24;;;;;;;3.13;1.90;;;;;;;14.27;57.48;99530.69;6098081;23;20061;-80
2021/10/05 01:45:55;;;;;;;3.55;2.10;;;;;;;14.22;58.39;99530.19;6097932;23;20034;-80
2021/10/05 01:48:22;;;;;;;2.20;1.63;;;;;;;14.20;57.83;99527.66;6097759;23;20358;-80
2021/10/05 01:50:48;;;;;;;1.80;1.50;;;;;;;14.19;57.78;99512.75;6097865;23;20022;-80
2021/10/05 01:53:27;;;;;;;2.92;2.13;;;;;;;14.12;58.90;99513.31;6097604;23;20030;-80
2021/10/05 01:55:54;;;;;;;2.38;1.70;;;;;;;14.15;57.98;99510.44;6099281;23;20342;-80
2021/10/05 01:58:21;;;;;;;2.63;1.70;;;;;;;14.14;57.96;99506.97;6097326;23;20021;-80
2021/10/05 02:01:07;;;;;;;2.63;1.70;;;;;;;14.06;58.75;99504.06;6097522;23;20024;-80
2021/10/05 02:03:34;;;;;;;1.65;1.30;;;;;;;14.09;57.97;99498.50;6097485;23;20041;-80
2021/10/05 02:06:01;;;;;;;1.67;1.58;;;;;;;14.07;58.10;99484.56;6097040;23;20042;-80
2021/10/05 02:08:38;;;;;;;2.08;1.88;;;;;;;14.02;59.00;99489.38;6097449;23;20064;-80
2021/10/05 02:11:05;;;;;;;2.10;1.77;;;;;;;14.05;58.38;99489.13;6097169;23;20331;-80
2021/10/05 02:13:32;;;;;;;2.30;1.60;;;;;;;14.04;58.41;99479.50;6098830;23;20442;-80
2021/10/05 02:16:02;;;;;;;1.70;1.60;;;;;;;14.03;59.14;99472.53;6097457;23;20022;-80
2021/10/05 02:18:29;;;;;;;3.03;1.83;;;;;;;14.05;58.51;99473.25;6097344;23;20022;-80
2021/10/05 02:20:57;;;;;;;1.67;1.50;;;;;;;14.06;58.61;99464.38;6097966;23;20097;-80
2021/10/05 02:26:19;;;;;;;1.80;1.52;;;;;;;14.05;59.22;99460.00;6098921;23;20442;-80
2021/10/05 02:28:46;;;;;;;3.35;2.10;;;;;;;14.07;58.52;99447.50;6096638;23;20093;-80
2021/10/05 02:31:13;;;;;;;3.00;1.67;;;;;;;14.07;58.51;99453.66;6096455;23;20403;-80
2021/10/05 02:33:41;;;;;;;1.98;1.70;;;;;;;14.07;58.65;99455.44;6097294;23;20062;-80
2021/10/05 02:36:08;;;;;;;1.45;1.35;;;;;;;14.07;58.50;99452.81;6097001;23;20030;-80
2021/10/05 02:38:35;;;;;;;1.40;1.30;;;;;;;14.08;58.56;99446.53;6096895;23;20030;-80
2021/10/05 02:41:02;;;;;;;1.80;1.70;;;;;;;14.07;58.42;99445.72;6097764;23;20050;-80
2021/10/05 02:43:29;;;;;;;3.20;1.85;;;;;;;14.07;58.49;99450.16;6096582;23;20073;-80
2021/10/05 02:45:56;;;;;;;3.38;2.17;;;;;;;14.07;58.68;99442.22;6096973;23;20030;-79
2021/10/05 02:48:23;;;;;;;2.55;1.45;;;;;;;14.06;58.41;99444.00;6096985;23;20073;-79
2021/10/05 02:50:50;;;;;;;2.35;1.73;;;;;;;14.06;58.51;99432.59;6097744;23;20480;-79
2021/10/05 02:53:17;;;;;;;3.28;1.92;;;;;;;14.05;58.72;99436.19;6096920;23;20064;-79
2021/10/05 02:55:44;;;;;;;4.07;1.85;;;;;;;14.05;58.72;99431.75;6096630;23;20034;-80
2021/10/05 02:58:11;;;;;;;2.22;1.55;;;;;;;14.05;58.55;99438.84;6096928;23;20058;-80
2021/10/05 03:00:43;;;;;;;3.10;2.28;;;;;;;14.02;59.32;99424.03;6097577;23;20026;-80
2021/10/05 03:03:10;;;;;;;1.85;1.67;;;;;;;14.04;58.70;99415.97;6096919;23;20050;-80
2021/10/05 03:05:47;;;;;;;3.40;2.10;;;;;;;14.01;59.36;99416.22;6096911;23;20078;-80
2021/10/05 03:08:14;;;;;;;2.72;2.13;;;;;;;14.03;58.81;99416.94;6096858;23;20023;-80
2021/10/05 03:10:43;;;;;;;5.15;1.88;;;;;;;14.02;59.07;99412.63;6096709;23;20105;-80
2021/10/05 03:13:10;;;;;;;4.13;2.33;;;;;;;14.02;58.75;99405.50;6096622;23;20038;-80
2021/10/05 03:15:48;;;;;;;4.03;1.95;;;;;;;13.98;59.73;99403.25;6096491;23;20038;-80
2021/10/05 03:18:15;;;;;;;2.17;1.98;;;;;;;14.00;58.80;99402.16;6096514;23;20093;-80
2021/10/05 03:20:43;;;;;;;2.20;1.88;;;;;;;14.00;58.84;99403.94;6098048;23;20023;-80
2021/10/05 03:23:18;;;;;;;2.40;2.00;;;;;;;13.95;59.59;99393.75;6096680;23;20022;-80
2021/10/05 03:25:44;;;;;;;2.20;1.90;;;;;;;13.98;59.03;99392.66;6097851;23;20025;-80
2021/10/05 03:28:11;;;;;;;3.08;2.10;;;;;;;13.96;59.02;99384.84;6096565;23;20038;-80
2021/10/05 03:30:43;;;;;;;2.92;2.22;;;;;;;13.92;59.70;99383.38;6096492;23;20093;-80
2021/10/05 03:33:10;;;;;;;4.03;1.63;;;;;;;13.93;58.89;99382.41;6096840;23;20042;-80
2021/10/05 03:35:37;;;;;;;2.40;2.20;;;;;;;13.92;59.13;99375.44;6096204;23;20090;-80
2021/10/05 03:38:04;;;;;;;2.30;2.10;;;;;;;13.90;59.11;99372.06;6096763;23;20026;-80
2021/10/05 03:40:31;;;;;;;2.75;2.30;;;;;;;13.90;59.11;99372.06;6096641;23;20054;-80
2021/10/05 03:43:00;;;;;;;2.88;2.38;;;;;;;13.87;59.51;99370.50;6096574;23;20102;-80
2021/10/05 03:45:28;;;;;;;3.53;2.67;;;;;;;13.87;59.10;99369.66;6096769;23;20027;-82
2021/10/05 03:47:54;;;;;;;2.70;2.40;;;;;;;13.85;59.35;99367.13;6096432;23;20105;-82
2021/10/05 03:51:08;;;;;;;3.40;2.47;;;;;;;13.78;60.02;99366.78;6096512;23;20105;-82
2021/10/05 03:56:59;;;;;;;2.60;2.40;;;;;;;13.81;59.12;99355.09;6097825;23;20026;-82
2021/10/05 03:59:26;;;;;;;4.93;3.22;;;;;;;13.79;59.48;99363.16;6096672;23;20022;-82
2021/10/05 04:02:08;;;;;;;2.63;2.38;;;;;;;13.75;60.34;99360.88;6096358;23;20097;-82
2021/10/05 04:04:35;;;;;;;2.83;2.38;;;;;;;13.78;59.52;99360.63;6096396;23;20464;-82
2021/10/05 04:07:02;;;;;;;4.00;2.60;;;;;;;13.79;59.60;99359.66;6096304;23;20530;-82
2021/10/05 04:09:28;;;;;;;4.07;2.70;;;;;;;13.79;59.50;99354.38;6096753;23;20101;-82
2021/10/05 04:11:56;;;;;;;2.97;2.42;;;;;;;13.79;59.70;99349.06;6096045;23;20027;-82
2021/10/05 04:14:23;;;;;;;3.63;3.10;;;;;;;13.79;59.54;99351.72;6095890;23;20101;-82
2021/10/05 04:16:54;;;;;;;3.72;3.08;;;;;;;13.76;60.12;99351.97;6096168;23;20101;-83
2021/10/05 04:19:20;;;;;;;3.33;2.75;;;;;;;13.78;59.61;99344.75;6096585;23;20347;-82
2021/10/05 04:21:47;;;;;;;2.95;2.60;;;;;;;13.77;59.47;99348.38;6096328;23;20682;-82
2021/10/05 04:24:14;;;;;;;2.85;2.50;;;;;;;13.76;59.67;99336.09;6095700;23;20039;-82
2021/10/05 04:26:41;;;;;;;4.30;3.13;;;;;;;13.76;59.78;99325.53;6097440;23;20097;-82
2021/10/05 04:29:07;;;;;;;3.90;3.10;;;;;;;13.75;59.70;99326.50;6096143;23;20097;-82
2021/10/05 04:31:41;;;;;;;4.72;3.13;;;;;;;13.70;60.24;99321.56;6095991;23;20022;-82
2021/10/05 04:34:08;;;;;;;3.17;2.88;;;;;;;13.73;59.52;99325.75;6096292;23;20125;-82
2021/10/05 04:36:35;;;;;;;3.88;2.80;;;;;;;13.71;59.65;99310.00;6096390;23;20029;-82
2021/10/05 04:39:03;;;;;;;4.43;3.03;;;;;;;13.68;60.05;99310.22;6095773;23;20033;-79
2021/10/05 04:41:30;;;;;;;3.58;3.28;;;;;;;13.67;59.72;99309.41;6096056;23;20029;-79
2021/10/05 04:43:57;;;;;;;5.10;2.67;;;;;;;13.66;59.79;99307.72;6096148;23;20093;-79
2021/10/05 04:46:25;;;;;;;4.97;3.20;;;;;;;13.63;59.72;99304.47;6096038;23;20030;-80
2021/10/05 04:48:52;;;;;;;2.88;2.67;;;;;;;13.60;59.66;99305.53;6095843;23;20025;-80
2021/10/05 04:51:19;;;;;;;4.63;3.15;;;;;;;13.57;59.51;99297.84;6097468;23;20022;-80
2021/10/05 04:53:47;;;;;;;4.63;3.30;;;;;;;13.54;60.16;99300.75;6095909;23;20050;-80
2021/10/05 04:56:14;;;;;;;7.25;3.55;;;;;;;13.52;59.73;99303.50;6097367;23;20022;-79
2021/10/05 04:58:41;;;;;;;3.80;3.40;;;;;;;13.50;59.92;99304.56;6095716;23;20014;-79
2021/10/05 05:01:10;;;;;;;3.25;2.95;;;;;;;13.47;59.78;99302.97;6095758;23;20026;-82
2021/10/05 05:03:39;;;;;;;3.55;3.25;;;;;;;13.43;59.94;99304.19;6095524;23;20018;-82
2021/10/05 05:06:07;;;;;;;4.07;3.53;;;;;;;13.39;59.87;99300.91;6095457;23;20022;-79
2021/10/05 05:08:35;;;;;;;6.82;3.67;;;;;;;13.37;59.96;99291.41;6096151;23;20390;-79
2021/10/05 05:11:06;;;;;;;5.60;3.90;;;;;;;13.32;60.75;99283.84;6096054;23;20349;-82
2021/10/05 05:13:39;;;;;;;4.00;3.58;;;;;;;13.30;60.81;99293.69;6097715;23;20034;-84
2021/10/05 05:16:05;;;;;;;3.47;3.17;;;;;;;13.31;60.28;99284.81;6095708;23;20029;-84
2021/10/05 05:18:32;;;;;;;4.75;3.88;;;;;;;13.30;60.15;99285.75;6096086;23;20791;-83
2021/10/05 05:21:11;;;;;;;3.72;3.28;;;;;;;13.24;60.96;99283.59;6095379;23;20026;-81
2021/10/05 05:23:38;;;;;;;3.92;3.15;;;;;;;13.27;60.19;99286.81;6095854;23;20022;-81
2021/10/05 05:26:05;;;;;;;4.00;3.50;;;;;;;13.25;60.36;99280.81;6097200;23;20022;-80
2021/10/05 05:28:45;;;;;;;3.80;3.38;;;;;;;13.21;61.04;99278.53;6095895;23;20105;-81
2021/10/05 05:31:13;;;;;;;4.03;3.65;;;;;;;13.23;60.48;99277.44;6095937;23;20026;-81
2021/10/05 05:33:56;;;;;;;4.00;3.60;;;;;;;13.18;61.11;99270.81;6095641;23;20029;-81
2021/10/05 05:36:23;;;;;;;5.35;3.92;;;;;;;13.22;60.48;99274.91;6096262;23;20346;-81
2021/10/05 05:38:50;;;;;;;4.30;3.88;;;;;;;13.19;60.52;99269.88;6096181;23;20094;-79
2021/10/05 05:41:18;;;;;;;4.60;3.70;;;;;;;13.18;60.52;99268.19;6095775;23;20029;-80
2021/10/05 05:43:45;;;;;;;4.68;3.92;;;;;;;13.16;60.52;99266.50;6095222;23;20033;-80
2021/10/05 05:46:13;;;;;;;4.85;3.90;;;;;;;13.14;60.54;99273.72;6096083;23;20057;-80
2021/10/05 05:48:41;;;;;;;4.80;4.25;;;;;;;13.12;60.65;99258.94;6095583;23;20050;-80
2021/10/05 05:51:09;;;;;;;4.15;3.65;;;;;;;13.10;60.74;99261.69;6096116;23;20022;-80
2021/10/05 05:53:39;;;;;;;5.45;4.20;;;;;;;13.09;61.50;99254.69;6096140;23;20078;-80
2021/10/05 05:56:06;;;;;;;4.13;3.72;;;;;;;13.09;60.61;99249.41;6095563;23;20018;-80
2021/10/05 05:59:12;;;;;;;5.80;4.20;;;;;;;13.04;61.51;99241.00;6098479;23;20022;-81
2021/10/05 06:01:47;;;;;;;4.63;4.20;;;;;;;13.08;60.82;99242.47;6096000;23;20046;-81
2021/10/05 06:04:43;;;;;;;4.63;3.70;;;;;;;13.03;61.67;99245.47;6097359;23;20093;-81
2021/10/05 06:07:17;;;;;;;5.80;4.45;;;;;;;13.08;60.98;99236.34;6095535;23;20196;-81
2021/10/05 06:09:50;;;;;;;4.85;4.35;;;;;;;13.08;60.93;99241.63;6095679;23;20071;-81
2021/10/05 06:12:57;;;;;;;6.45;5.22;;;;;;;13.02;61.85;99243.75;6096860;23;20026;-81
2021/10/05 06:15:31;;;;;;;4.97;4.47;;;;;;;13.07;61.20;99237.28;6095448;23;20034;-81
2021/10/05 06:18:06;;;;;;;5.63;4.68;;;;;;;13.08;61.58;99241.63;6096228;23;20034;-81
2021/10/05 06:24:23;;;;;;;5.88;4.25;;;;;;;13.11;61.09;99229.03;6098692;23;20025;-81
2021/10/05 06:26:51;;;;;;;5.15;4.63;;;;;;;13.11;61.26;99229.03;6097224;23;20442;-81
2021/10/05 06:29:21;;;;;;;5.43;4.63;;;;;;;13.10;61.49;99223.84;6097191;23;20041;-81
2021/10/05 06:31:50;;;;;;;5.25;4.72;;;;;;;13.12;61.57;99222.75;6097385;23;20054;-80
2021/10/05 06:34:31;;;;;;;4.90;4.47;;;;;;;13.09;62.23;99227.44;6096873;23;20026;-80
2021/10/05 06:36:57;;;;;;;6.40;4.70;;;;;;;13.15;61.42;99217.25;6097537;23;20023;-80
2021/10/05 06:39:24;;;;;;;7.93;5.38;;;;;;;13.17;61.64;99217.13;6096994;23;20022;-80
2021/10/05 06:41:57;;;;;;;5.50;4.47;;;;;;;13.19;62.50;99215.22;6097751;23;20106;-80
2021/10/05 06:44:25;;;;;;;5.20;4.65;;;;;;;13.24;61.93;99206.94;6097022;23;20029;-80
2021/10/05 06:46:53;;;;;;;7.63;5.35;;;;;;;13.27;62.28;99210.19;6097003;23;20030;-80
2021/10/05 06:49:19;;;;;;;5.47;4.93;;;;;;;13.31;62.16;99204.66;6097122;23;20101;-80
2021/10/05 06:51:50;;;;;;;5.63;5.05;;;;;;;13.34;62.54;99204.44;6097425;23;20121;-80
2021/10/05 06:54:29;;;;;;;5.22;4.57;;;;;;;13.36;62.73;99198.06;6096974;23;20029;-80
2021/10/05 06:56:56;;;;;;;6.22;5.07;;;;;;;13.43;62.12;99193.97;6098848;23;20446;-80
2021/10/05 06:59:24;;;;;;;5.78;5.13;;;;;;;13.48;61.88;99196.28;6097040;23;20029;-80
2021/10/05 07:01:58;;;;;;;5.35;4.68;;;;;;;13.50;62.49;99194.34;6096803;23;20113;-80
2021/10/05 07:04:25;;;;;;;5.18;4.68;;;;;;;13.57;61.96;99199.16;6099304;23;20357;-80
2021/10/05 07:06:58;;;;;;;5.32;4.82;;;;;;;13.57;62.74;99189.41;6097439;23;20334;-80
2021/10/05 07:09:25;;;;;;;5.13;4.63;;;;;;;13.64;61.96;99187.16;6096964;23;20101;-80
2021/10/05 07:11:56;;;;;;;4.75;4.35;;;;;;;13.65;62.55;99191.47;6097342;23;20378;-80
2021/10/05 07:14:23;;;;;;;5.28;4.60;;;;;;;13.70;62.18;99189.31;6097037;23;20032;-80
2021/10/05 07:16:50;;;;;;;5.63;4.75;;;;;;;13.74;62.24;99182.81;6096756;23;20026;-80
2021/10/05 07:19:24;;;;;;;5.90;5.30;;;;;;;13.79;62.09;99185.91;6083638;23;20033;-80
2021/10/05 07:21:51;;;;;;;5.28;4.78;;;;;;;13.84;62.00;99177.63;6096649;23;20022;-80
2021/10/05 07:24:18;;;;;;;5.03;4.53;;;;;;;13.88;62.20;99181.72;6097016;23;20029;-80
2021/10/05 07:26:47;;;;;;;5.35;4.63;;;;;;;13.93;62.35;99176.88;6096570;23;20026;-80
2021/10/05 07:29:14;;;;;;;6.00;4.57;;;;;;;13.98;62.11;99171.22;6096890;23;20033;-80
2021/10/05 07:31:40;;;;;;;5.45;4.80;;;;;;;14.03;62.34;99168.19;6096553;23;20030;-80
2021/10/05 07:34:16;;;;;;;6.53;4.72;;;;;;;14.05;62.57;99166.25;6096606;23;20023;-80
2021/10/05 07:36:43;;;;;;;5.53;4.20;;;;;;;14.14;61.93;99173.47;6096427;23;20062;-80
2021/10/05 07:39:10;;;;;;;4.65;4.18;;;;;;;14.20;61.91;99166.81;6096450;23;20022;-80
2021/10/05 07:41:37;;;;;;;4.78;4.28;;;;;;;14.24;61.96;99165.59;6096582;23;20028;-80
2021/10/05 07:44:04;;;;;;;5.22;4.47;;;;;;;14.28;61.96;99158.25;6096570;23;20022;-80
2021/10/05 07:46:30;;;;;;;4.38;3.97;;;;;;;14.31;61.83;99150.03;6096544;23;20072;-85
2021/10/05 07:49:01;;;;;;;6.28;3.95;;;;;;;14.34;61.71;99152.44;6096434;23;20026;-80
2021/10/05 07:51:28;;;;;;;5.38;4.13;;;;;;;14.36;61.78;99147.88;6096806;23;20323;-80
2021/10/05 07:53:55;;;;;;;4.35;3.78;;;;;;;14.39;61.56;99144.13;6096427;23;20421;-80
2021/10/05 07:56:22;;;;;;;7.07;4.22;;;;;;;14.40;61.66;99144.00;6096138;23;20085;-80
2021/10/05 07:58:49;;;;;;;4.63;4.05;;;;;;;14.42;61.64;99142.06;6096425;23;20041;-80
2021/10/05 08:01:16;;;;;;;5.07;3.97;;;;;;;14.44;61.35;99137.47;6096863;23;20030;-80
2021/10/05 08:03:58;;;;;;;4.40;4.00;;;;;;;14.44;61.83;99128.69;6096726;23;20072;-80
2021/10/05 08:06:39;;;;;;;4.55;4.10;;;;;;;14.45;61.72;99128.56;6096141;23;20031;-80
2021/10/05 08:09:06;;;;;;;5.57;3.78;;;;;;;14.52;61.45;99136.84;6096196;23;20101;-80
2021/10/05 08:11:33;;;;;;;3.83;3.53;;;;;;;14.55;61.43;99125.16;6096686;23;20097;-80
2021/10/05 08:14:02;;;;;;;5.22;4.05;;;;;;;14.57;61.67;99128.50;6097453;23;20023;-80
2021/10/05 08:16:32;;;;;;;5.00;4.05;;;;;;;14.61;61.48;99119.31;6096523;23;20086;-80
2021/10/05 08:19:00;;;;;;;3.88;3.58;;;;;;;14.66;61.79;99119.78;6096126;23;20031;-80
2021/10/05 08:21:29;;;;;;;4.35;3.72;;;;;;;14.72;61.95;99116.63;6096356;23;20045;-80
2021/10/05 08:24:00;;;;;;;5.63;3.97;;;;;;;14.79;61.79;99111.66;6096557;23;20097;-80
2021/10/05 08:26:27;;;;;;;4.38;3.58;;;;;;;14.90;61.96;99105.44;6096186;23;20105;-80
2021/10/05 08:28:54;;;;;;;7.68;4.55;;;;;;;14.98;61.82;99110.94;6096199;23;20023;-80
2021/10/05 08:31:25;;;;;;;4.65;3.80;;;;;;;15.07;61.63;99119.88;6096026;23;20022;-80
2021/10/05 08:33:52;;;;;;;5.10;4.05;;;;;;;15.18;61.51;99111.00;6095958;23;20033;-80
2021/10/05 08:36:41;;;;;;;4.55;3.95;;;;;;;15.23;61.60;99111.47;6097833;23;20349;-80
2021/10/05 08:39:10;;;;;;;4.97;3.90;;;;;;;15.36;61.25;99107.72;6095971;23;20438;-80
2021/10/05 08:41:38;;;;;;;4.90;4.28;;;;;;;15.43;61.00;99103.56;6095474;23;20034;-84
2021/10/05 08:44:04;;;;;;;4.43;4.03;;;;;;;15.52;61.17;99101.06;6095668;23;20398;-84
2021/10/05 08:47:03;;;;;;;6.10;4.13;;;;;;;15.56;61.50;99100.69;6096370;23;20094;-80
2021/10/05 08:49:30;;;;;;;5.72;4.03;;;;;;;15.69;61.06;99103.06;6096432;23;20019;-80
2021/10/05 08:52:04;;;;;;;4.95;3.97;;;;;;;15.73;60.87;99099.16;6096420;23;20350;-80
2021/10/05 08:55:06;;;;;;;5.53;4.53;;;;;;;15.82;60.82;99088.69;6095196;23;20019;-80
2021/10/05 08:57:33;;;;;;;6.65;4.45;;;;;;;15.93;60.40;99087.72;6095779;23;20093;-80
2021/10/05 09:00:04;;;;;;;5.57;4.18;;;;;;;15.99;60.51;99085.38;6096202;23;20022;-80
2021/10/05 09:02:42;;;;;;;4.82;4.32;;;;;;;16.04;60.01;99084.13;6096027;23;20481;-80
2021/10/05 09:05:14;;;;;;;3.88;3.58;;;;;;;16.13;59.95;99084.16;6096034;23;20464;-80
2021/10/05 09:07:48;;;;;;;4.45;4.03;;;;;;;16.20;59.92;99084.41;6096392;23;20431;-80
2021/10/05 09:10:19;;;;;;;4.10;3.70;;;;;;;16.27;59.84;99080.19;6095791;23;20027;-80
2021/10/05 09:12:50;;;;;;;4.70;3.97;;;;;;;16.33;59.34;99070.00;6096372;23;20118;-80
2021/10/05 09:15:19;;;;;;;6.05;3.75;;;;;;;16.40;59.43;99060.47;6095610;23;20450;-80
2021/10/05 09:18:01;;;;;;;4.07;3.67;;;;;;;16.42;59.25;99061.19;6096635;23;20038;-79
2021/10/05 09:20:31;;;;;;;4.47;3.65;;;;;;;16.51;59.53;99065.63;6095451;23;20450;-80
2021/10/05 09:23:07;;;;;;;4.15;3.75;;;;;;;16.57;59.28;99055.41;6096230;23;20022;-80
2021/10/05 09:25:41;;;;;;;6.28;4.15;;;;;;;16.65;59.15;99052.88;6095690;23;20446;-80
2021/10/05 09:28:19;;;;;;;5.47;3.60;;;;;;;16.71;58.85;99046.97;6095623;23;20029;-80
2021/10/05 09:31:00;;;;;;;3.80;3.50;;;;;;;16.78;58.92;99047.22;6095530;23;20037;-81
2021/10/05 09:33:33;;;;;;;4.82;4.07;;;;;;;16.85;58.35;99037.69;6095661;23;20029;-85
2021/10/05 09:36:02;;;;;;;5.32;4.45;;;;;;;16.90;58.11;99048.72;6097116;23;20101;-84
2021/10/05 09:38:32;;;;;;;5.00;3.78;;;;;;;16.90;58.10;99046.06;6095509;23;20030;-84
2021/10/05 09:41:10;;;;;;;4.45;3.95;;;;;;;16.92;57.83;99038.78;6095571;23;20101;-84
2021/10/05 09:43:37;;;;;;;4.90;3.72;;;;;;;16.94;57.93;99033.34;6096086;23;20026;-80
2021/10/05 09:46:17;;;;;;;4.93;3.95;;;;;;;16.94;57.58;99031.50;6096068;23;20411;-80
2021/10/05 09:48:44;;;;;;;5.38;4.40;;;;;;;17.01;57.78;99023.75;6095652;23;20023;-80
2021/10/05 09:51:36;;;;;;;5.10;4.40;;;;;;;17.03;58.29;99032.44;6095806;23;20026;-82
2021/10/05 09:54:04;;;;;;;5.68;4.10;;;;;;;17.12;58.16;99030.75;6098571;23;20022;-82
2021/10/05 09:56:31;;;;;;;5.40;3.85;;;;;;;17.22;58.23;99019.22;6097600;23;20110;-82
2021/10/05 09:58:59;;;;;;;5.32;4.03;;;;;;;17.28;58.58;99027.47;6097731;23;20029;-82
2021/10/05 10:01:26;;;;;;;5.53;4.28;;;;;;;17.37;57.86;99027.53;6097583;23;20469;-82
2021/10/05 10:03:57;;;;;;;4.32;3.67;;;;;;;17.45;57.86;99017.81;6097665;23;20410;-82
2021/10/05 10:06:26;;;;;;;4.18;3.78;;;;;;;17.56;57.98;99011.44;6098288;23;20022;-82
2021/10/05 10:08:53;;;;;;;4.82;4.32;;;;;;;17.67;57.98;99006.88;6098205;23;20128;-82
2021/10/05 10:11:26;;;;;;;4.47;4.07;;;;;;;17.76;57.24;99007.78;6097354;23;20026;-82
2021/10/05 10:13:54;;;;;;;4.60;3.95;;;;;;;17.86;56.91;99005.88;6098112;23;20340;-82
2021/10/05 10:16:21;;;;;;;4.60;4.20;;;;;;;17.92;57.00;99001.75;6097281;23;20101;-82
2021/10/05 10:19:02;;;;;;;4.07;3.50;;;;;;;17.94;56.28;99007.78;6097511;23;20037;-82
2021/10/05 10:21:37;;;;;;;3.78;3.47;;;;;;;18.00;56.60;98996.50;6098439;23;20681;-82
2021/10/05 10:24:15;;;;;;;3.95;3.55;;;;;;;18.04;56.62;98997.88;6097386;23;20501;-82
2021/10/05 10:26:45;;;;;;;4.20;3.80;;;;;;;18.11;56.47;99000.78;6097792;23;20028;-82
2021/10/05 10:29:35;;;;;;;3.75;3.28;;;;;;;18.15;55.89;98998.63;6097578;23;20458;-82
2021/10/05 10:32:09;;;;;;;3.80;3.25;;;;;;;18.18;56.38;98993.84;6097441;23;20073;-82
2021/10/05 10:34:38;;;;;;;4.07;3.67;;;;;;;18.23;56.22;98975.56;6097003;23;20035;-81
2021/10/05 10:37:20;;;;;;;3.53;3.22;;;;;;;18.26;55.56;98973.56;6098483;23;20026;-81
2021/10/05 10:39:47;;;;;;;3.60;3.28;;;;;;;18.29;56.13;98965.28;6097498;23;20417;-81
2021/10/05 10:42:33;;;;;;;3.60;3.28;;;;;;;18.27;55.91;98957.44;6097231;23;20109;-82
2021/10/05 10:45:14;;;;;;;3.63;3.10;;;;;;;18.30;55.44;98965.13;6097131;23;20101;-82
2021/10/05 10:47:41;;;;;;;4.25;3.10;;;;;;;18.37;56.37;98962.66;6096933;23;20109;-82
2021/10/05 10:50:12;;;;;;;4.85;3.50;;;;;;;18.42;56.52;98946.19;6097199;23;20019;-82
2021/10/05 10:52:44;;;;;;;4.47;3.38;;;;;;;18.49;56.52;98945.41;6098129;23;20333;-82
2021/10/05 10:55:19;;;;;;;3.90;3.50;;;;;;;18.60;56.52;98960.28;6096795;23;20035;-82
2021/10/05 10:57:56;;;;;;;4.05;3.63;;;;;;;18.71;56.23;98939.66;6097443;23;20463;-82
2021/10/05 11:00:32;;;;;;;3.50;3.20;;;;;;;18.87;55.71;98942.38;6089456;23;20057;-82
2021/10/05 11:03:02;;;;;;;3.63;3.15;;;;;;;19.01;55.83;98926.75;6097317;23;20037;-82
2021/10/05 11:05:35;;;;;;;3.20;2.90;;;;;;;19.17;55.60;98922.50;6098501;23;20030;-82
2021/10/05 11:08:12;;;;;;;2.80;2.60;;;;;;;19.36;55.50;98929.38;6097000;23;20018;-82
2021/10/05 11:10:40;;;;;;;4.57;3.10;;;;;;;19.57;55.24;98918.19;6097055;23;20022;-82
2021/10/05 11:13:12;;;;;;;3.20;2.90;;;;;;;19.73;54.53;98924.53;6096913;23;20030;-82
2021/10/05 11:15:40;;;;;;;3.28;2.78;;;;;;;19.89;55.14;98911.13;6097197;23;20029;-82
2021/10/05 11:18:10;;;;;;;2.55;2.30;;;;;;;20.08;54.52;98910.97;6097089;23;20030;-82
2021/10/05 11:20:59;;;;;;;2.58;2.33;;;;;;;20.33;54.60;98905.59;6096667;23;20105;-82
2021/10/05 11:23:26;;;;;;;2.58;2.38;;;;;;;20.70;54.93;98907.59;6096643;23;20026;-82
2021/10/05 11:25:59;;;;;;;1.90;1.80;;;;;;;21.07;53.71;98913.28;6097500;23;20022;-81
2021/10/05 11:28:31;;;;;;;2.28;2.08;;;;;;;21.59;54.73;98904.69;6096678;23;20029;-81
2021/10/05 11:31:00;;;;;;;2.45;2.03;;;;;;;22.27;54.78;98903.88;6096725;23;20018;-87
2021/10/05 11:34:03;;;;;;;1.67;1.58;;;;;;;23.05;53.25;98881.09;5987163;23;20020;-87
2021/10/05 11:36:34;;;;;;;2.30;1.40;;;;;;;23.88;51.95;98878.94;5986751;23;20030;-86
2021/10/05 11:39:07;;;;;;;1.35;1.25;;;;;;;24.60;49.74;98876.84;6010015;23;20079;-86
2021/10/05 11:42:25;;;;;;;2.60;0.93;;;;;;;25.42;48.69;98871.66;6002639;23;20550;-86
2021/10/05 11:45:09;;;;;;;0.90;0.85;;;;;;;26.24;47.49;98867.84;6009249;23;20028;-86
2021/10/05 11:47:35;;;;;;;1.45;0.80;;;;;;;26.89;47.50;98848.06;5986542;23;20089;-86
2021/10/05 11:50:06;;;;;;;2.42;1.00;;;;;;;27.52;45.16;98850.13;6009445;23;20032;-87
2021/10/05 11:52:37;;;;;;;0.80;0.80;;;;;;;28.13;44.51;98841.41;6084832;23;20028;-86
2021/10/05 11:55:04;;;;;;;1.17;1.08;;;;;;;28.69;43.53;98844.91;6096156;23;20439;-87
2021/10/05 12:00:58;;;;;;;3.05;1.25;;;;;;;29.93;42.02;98831.94;6097616;23;20023;-87
2021/10/05 12:03:27;;;;;;;1.08;0.88;;;;;;;30.36;39.33;98816.25;6096372;23;20073;-87
2021/10/05 12:05:57;;;;;;;0.57;0.57;;;;;;;30.72;38.08;98816.94;6096094;23;20029;-87